createdAt,value
2023-03-19T00:00:49.971Z,62.10
2023-03-19T00:03:37.303Z,61.80
2023-03-19T00:06:06.783Z,61.80
2023-03-19T00:08:34.119Z,62.40
2023-03-19T00:11:14.675Z,61.60
2023-03-19T00:13:42.026Z,61.60
2023-03-19T00:16:11.686Z,61.60
2023-03-19T00:18:39.169Z,61.20
2023-03-19T00:21:07.796Z,61.40
2023-03-19T00:23:35.718Z,61.40
2023-03-19T00:26:03.426Z,61.50
2023-03-19T00:28:31.085Z,61.90
2023-03-19T00:30:58.381Z,62.00
2023-03-19T00:33:25.756Z,62.10
2023-03-19T00:35:53.071Z,62.10
2023-03-19T00:38:20.404Z,62.40
2023-03-19T00:40:47.408Z,62.50
2023-03-19T00:43:14.739Z,62.60
2023-03-19T00:45:41.844Z,62.70
2023-03-19T00:48:09.274Z,62.80
2023-03-19T00:50:36.306Z,62.90
2023-03-19T00:53:03.781Z,63.10
2023-03-19T00:55:30.887Z,63.30
2023-03-19T00:57:58.286Z,63.30
2023-03-19T01:00:27.790Z,63.20
2023-03-19T01:02:55.294Z,63.40
2023-03-19T01:05:22.479Z,63.30
2023-03-19T01:07:50.422Z,63.50
2023-03-19T01:10:22.085Z,63.40
2023-03-19T01:12:52.148Z,63.50
2023-03-19T01:15:19.605Z,63.50
2023-03-19T01:17:49.404Z,63.60
2023-03-19T01:20:18.744Z,63.70
2023-03-19T01:22:46.650Z,64.00
2023-03-19T01:25:14.450Z,64.00
2023-03-19T01:27:44.077Z,64.10
2023-03-19T01:30:11.943Z,64.00
2023-03-19T01:32:39.483Z,64.00
2023-03-19T01:35:09.171Z,64.20
2023-03-19T01:37:37.049Z,64.30
2023-03-19T01:40:11.123Z,64.20
2023-03-19T01:42:56.108Z,64.30
2023-03-19T01:45:33.996Z,64.40
2023-03-19T01:48:01.876Z,64.40
2023-03-19T01:50:40.009Z,64.50
2023-03-19T01:53:11.354Z,64.60
2023-03-19T01:55:40.727Z,64.60
2023-03-19T01:58:08.490Z,64.70
2023-03-19T02:00:37.546Z,64.80
2023-03-19T02:03:06.321Z,64.90
2023-03-19T02:05:34.486Z,65.00
2023-03-19T02:08:05.505Z,65.10
2023-03-19T02:10:33.845Z,65.30
2023-03-19T02:13:03.874Z,65.50
2023-03-19T02:15:30.962Z,65.70
2023-03-19T02:17:58.647Z,66.00
2023-03-19T02:20:37.532Z,66.10
2023-03-19T02:23:10.646Z,66.50
2023-03-19T02:25:44.478Z,66.70
2023-03-19T02:28:14.804Z,67.00
2023-03-19T02:30:43.892Z,67.30
2023-03-19T02:33:18.294Z,67.70
2023-03-19T02:35:53.181Z,68.00
2023-03-19T02:38:24.520Z,68.10
2023-03-19T02:41:03.522Z,68.40
2023-03-19T02:43:32.853Z,68.90
2023-03-19T02:46:04.571Z,69.00
2023-03-19T02:48:31.980Z,69.30
2023-03-19T02:50:59.471Z,69.90
2023-03-19T02:53:26.816Z,70.10
2023-03-19T02:55:53.818Z,70.50
2023-03-19T02:58:21.236Z,70.90
2023-03-19T03:03:16.600Z,71.60
2023-03-19T03:05:43.908Z,71.70
2023-03-19T03:08:10.979Z,71.90
2023-03-19T03:10:40.871Z,72.00
2023-03-19T03:13:07.953Z,72.30
2023-03-19T03:15:35.277Z,72.60
2023-03-19T03:18:02.313Z,72.80
2023-03-19T03:20:29.692Z,73.10
2023-03-19T03:22:58.965Z,73.10
2023-03-19T03:25:28.756Z,73.30
2023-03-19T03:27:58.372Z,73.60
2023-03-19T03:30:28.233Z,73.70
2023-03-19T03:32:55.491Z,74.20
2023-03-19T03:35:22.891Z,74.20
2023-03-19T03:37:51.464Z,74.40
2023-03-19T03:40:18.988Z,74.80
2023-03-19T03:42:46.015Z,74.60
2023-03-19T03:45:13.454Z,74.90
2023-03-19T03:47:40.494Z,74.90
2023-03-19T03:50:09.053Z,74.80
2023-03-19T03:52:36.354Z,74.90
2023-03-19T03:55:06.511Z,75.20
2023-03-19T03:57:35.811Z,75.30
2023-03-19T04:00:04.513Z,75.70
2023-03-19T04:02:31.673Z,76.10
2023-03-19T04:04:59.049Z,76.10
2023-03-19T04:07:27.004Z,76.40
2023-03-19T04:09:54.377Z,76.50
2023-03-19T04:12:21.413Z,76.70
2023-03-19T04:14:50.967Z,77.10
2023-03-19T04:17:20.339Z,77.30
2023-03-19T04:19:50.147Z,77.50
2023-03-19T04:22:19.404Z,78.00
2023-03-19T04:24:48.964Z,78.30
2023-03-19T04:27:18.470Z,78.40
2023-03-19T04:29:48.009Z,78.40
2023-03-19T04:32:15.047Z,78.50
2023-03-19T04:34:44.887Z,78.60
2023-03-19T04:37:14.117Z,78.70
2023-03-19T04:39:43.752Z,78.70
2023-03-19T04:42:11.378Z,78.90
2023-03-19T04:44:41.067Z,78.80
2023-03-19T04:47:10.652Z,79.20
2023-03-19T04:49:40.253Z,79.40
2023-03-19T04:52:07.554Z,79.30
2023-03-19T04:54:37.077Z,79.60
2023-03-19T04:57:04.166Z,79.70
2023-03-19T04:59:31.523Z,79.80
2023-03-19T05:01:58.555Z,80.20
2023-03-19T05:04:25.936Z,80.50
2023-03-19T05:06:55.213Z,80.80
2023-03-19T05:09:22.627Z,81.30
2023-03-19T05:11:49.660Z,81.50
2023-03-19T05:14:19.223Z,81.40
2023-03-19T05:16:48.816Z,80.90
2023-03-19T05:19:16.570Z,80.20
2023-03-19T05:21:43.554Z,79.00
2023-03-19T05:24:13.364Z,77.90
2023-03-19T05:26:43.043Z,77.40
2023-03-19T05:29:10.363Z,77.70
2023-03-19T05:31:38.367Z,77.60
2023-03-19T05:34:08.258Z,77.60
2023-03-19T05:36:35.361Z,77.60
2023-03-19T05:39:04.938Z,77.00
2023-03-19T05:41:32.035Z,76.10
2023-03-19T05:43:59.415Z,75.00
2023-03-19T05:46:28.644Z,73.70
2023-03-19T05:48:56.008Z,73.20
2023-03-19T05:51:23.040Z,73.50
2023-03-19T05:53:52.592Z,73.30
2023-03-19T05:56:21.891Z,73.00
2023-03-19T05:58:49.243Z,72.30
2023-03-19T06:01:16.461Z,71.40
2023-03-19T06:03:46.080Z,70.10
2023-03-19T06:06:16.122Z,69.20
2023-03-19T06:08:43.512Z,68.90
2023-03-19T06:11:10.552Z,69.20
2023-03-19T06:13:37.909Z,69.40
2023-03-19T06:16:05.394Z,68.30
2023-03-19T06:18:33.092Z,67.50
2023-03-19T06:21:00.234Z,66.90
2023-03-19T06:23:28.091Z,66.20
2023-03-19T06:25:55.118Z,65.80
2023-03-19T06:28:24.757Z,65.90
2023-03-19T06:30:56.270Z,66.40
2023-03-19T06:33:23.615Z,66.60
2023-03-19T06:35:50.706Z,66.10
2023-03-19T06:38:18.153Z,65.80
2023-03-19T06:40:45.345Z,65.20
2023-03-19T06:43:15.166Z,65.10
2023-03-19T06:45:42.307Z,64.50
2023-03-19T06:48:09.609Z,63.30
2023-03-19T06:50:39.090Z,62.90
2023-03-19T06:53:11.122Z,63.50
2023-03-19T06:55:40.960Z,63.70
2023-03-19T06:58:10.468Z,63.80
2023-03-19T07:00:41.997Z,63.50
2023-03-19T07:03:11.826Z,62.20
2023-03-19T07:05:41.518Z,62.40
2023-03-19T07:08:11.419Z,62.90
2023-03-19T07:10:38.985Z,62.60
2023-03-19T07:13:09.657Z,60.90
2023-03-19T07:15:38.901Z,59.40
2023-03-19T07:18:10.822Z,59.20
2023-03-19T07:20:37.823Z,58.60
2023-03-19T07:23:07.627Z,57.90
2023-03-19T07:25:34.666Z,56.40
2023-03-19T07:28:02.072Z,54.50
2023-03-19T07:30:29.180Z,53.30
2023-03-19T07:32:56.549Z,53.50
2023-03-19T07:35:25.899Z,53.90
2023-03-19T07:37:53.264Z,53.40
2023-03-19T07:40:22.583Z,53.50
2023-03-19T07:42:49.907Z,54.40
2023-03-19T07:45:19.377Z,54.60
2023-03-19T07:47:48.583Z,55.10
2023-03-19T07:50:17.195Z,54.80
2023-03-19T07:52:47.722Z,54.50
2023-03-19T07:55:17.486Z,54.30
2023-03-19T07:57:44.883Z,54.70
2023-03-19T08:00:12.306Z,55.60
2023-03-19T08:02:39.735Z,56.10
2023-03-19T08:05:07.444Z,57.00
2023-03-19T08:07:35.262Z,55.60
2023-03-19T08:10:03.616Z,53.60
2023-03-19T08:12:30.957Z,50.40
2023-03-19T08:14:58.204Z,48.20
2023-03-19T08:17:25.618Z,46.60
2023-03-19T08:19:55.110Z,45.00
2023-03-19T08:22:22.398Z,45.20
2023-03-19T08:24:49.522Z,46.00
2023-03-19T08:27:16.933Z,46.00
2023-03-19T08:29:43.994Z,45.10
2023-03-19T08:32:17.081Z,45.60
2023-03-19T08:34:44.004Z,45.80
2023-03-19T08:37:15.263Z,45.70
2023-03-19T08:39:45.123Z,46.40
2023-03-19T08:42:12.817Z,48.00
2023-03-19T08:44:42.321Z,49.60
2023-03-19T08:47:09.725Z,50.10
2023-03-19T08:49:38.928Z,50.30
2023-03-19T08:52:06.892Z,51.00
2023-03-19T08:54:33.926Z,51.50
2023-03-19T08:57:01.743Z,51.70
2023-03-19T08:59:29.329Z,51.50
2023-03-19T09:01:56.893Z,51.00
2023-03-19T09:04:24.039Z,51.50
2023-03-19T09:06:54.009Z,51.90
2023-03-19T09:09:23.031Z,53.00
2023-03-19T09:11:52.955Z,54.70
2023-03-19T09:14:20.079Z,55.80
2023-03-19T09:16:49.742Z,55.90
2023-03-19T09:19:16.882Z,54.20
2023-03-19T09:21:48.671Z,52.20
2023-03-19T09:24:18.180Z,50.90
2023-03-19T09:26:46.590Z,49.50
2023-03-19T09:29:16.309Z,47.30
2023-03-19T09:31:43.892Z,45.50
2023-03-19T09:34:13.405Z,43.10
2023-03-19T09:36:40.758Z,41.80
2023-03-19T09:39:10.510Z,40.30
2023-03-19T09:42:14.619Z,39.90
2023-03-19T09:44:46.693Z,39.50
2023-03-19T09:47:28.028Z,39.40
2023-03-19T09:50:01.511Z,38.90
2023-03-19T09:52:45.822Z,38.80
2023-03-19T09:55:42.998Z,39.60
2023-03-19T09:58:32.752Z,41.00
2023-03-19T10:01:02.345Z,42.90
2023-03-19T10:04:04.329Z,44.10
2023-03-19T10:06:35.453Z,44.40
2023-03-19T10:09:21.219Z,44.30
2023-03-19T10:12:00.093Z,44.00
2023-03-19T10:14:42.500Z,43.40
2023-03-19T10:17:16.541Z,43.60
2023-03-19T10:19:46.821Z,43.20
2023-03-19T10:22:21.839Z,43.10
2023-03-19T10:25:01.761Z,42.00
2023-03-19T10:27:31.110Z,41.50
2023-03-19T10:29:58.765Z,40.50
2023-03-19T10:32:44.880Z,39.50
2023-03-19T10:35:26.589Z,38.80
2023-03-19T10:37:53.909Z,38.10
2023-03-19T10:40:33.920Z,37.90
2023-03-19T10:43:13.324Z,37.90
2023-03-19T10:45:41.171Z,38.20
2023-03-19T10:48:16.557Z,38.90
2023-03-19T10:50:55.422Z,39.30
2023-03-19T10:53:31.960Z,39.30
2023-03-19T10:56:08.126Z,40.10
2023-03-19T10:58:37.090Z,40.40
2023-03-19T11:01:12.709Z,40.70
2023-03-19T11:03:57.088Z,41.30
2023-03-19T11:06:36.521Z,41.50
2023-03-19T11:09:19.397Z,41.00
2023-03-19T11:11:50.778Z,41.10
2023-03-19T11:14:26.351Z,40.90
2023-03-19T11:17:04.897Z,40.70
2023-03-19T11:19:40.598Z,41.10
2023-03-19T11:22:07.881Z,41.40
2023-03-19T11:24:40.483Z,41.30
2023-03-19T11:27:09.407Z,41.40
2023-03-19T11:29:43.364Z,41.40
2023-03-19T11:32:46.690Z,41.80
2023-03-19T11:35:51.254Z,41.60
2023-03-19T11:38:32.745Z,42.80
2023-03-19T11:41:13.700Z,43.50
2023-03-19T11:43:50.761Z,44.70
2023-03-19T11:46:31.310Z,45.00
2023-03-19T11:49:15.384Z,45.90
2023-03-19T11:51:52.515Z,47.10
2023-03-19T11:55:15.114Z,47.30
2023-03-19T11:57:51.467Z,47.20
2023-03-19T12:00:35.509Z,47.30
2023-03-19T12:03:33.306Z,48.10
2023-03-19T12:06:04.562Z,49.00
2023-03-19T12:08:48.237Z,49.60
2023-03-19T12:11:30.810Z,49.60
2023-03-19T12:14:36.599Z,49.60
2023-03-19T12:17:23.493Z,49.60
2023-03-19T12:20:13.813Z,49.60
2023-03-19T12:22:59.331Z,50.00
2023-03-19T12:25:52.408Z,50.40
2023-03-19T12:29:04.603Z,50.10
2023-03-19T12:31:46.863Z,50.10
2023-03-19T12:34:26.097Z,50.30
2023-03-19T12:37:01.649Z,50.60
2023-03-19T12:39:37.191Z,51.20
2023-03-19T12:42:07.171Z,51.40
2023-03-19T12:44:48.665Z,52.40
2023-03-19T12:47:32.649Z,52.20
2023-03-19T12:50:07.242Z,52.30
2023-03-19T12:52:39.642Z,52.60
2023-03-19T12:55:12.889Z,53.20
2023-03-19T12:58:03.233Z,53.10
2023-03-19T13:00:34.843Z,53.50
2023-03-19T13:03:20.855Z,53.80
2023-03-19T13:06:12.108Z,54.30
2023-03-19T13:08:47.454Z,54.60
2023-03-19T13:11:26.384Z,53.60
2023-03-19T13:14:13.413Z,53.50
2023-03-19T13:16:59.423Z,53.90
2023-03-19T13:19:46.558Z,54.20
2023-03-19T13:22:20.811Z,53.80
2023-03-19T13:24:50.348Z,54.10
2023-03-19T13:27:34.020Z,54.50
2023-03-19T13:30:06.288Z,53.70
2023-03-19T13:32:46.911Z,54.00
2023-03-19T13:35:25.901Z,54.30
2023-03-19T13:38:18.901Z,54.10
2023-03-19T13:40:59.468Z,54.20
2023-03-19T13:43:29.768Z,54.30
2023-03-19T13:46:12.213Z,54.40
2023-03-19T13:48:45.620Z,54.60
2023-03-19T13:51:12.726Z,55.30
2023-03-19T13:53:53.115Z,56.00
2023-03-19T13:56:29.517Z,56.40
2023-03-19T13:59:15.508Z,56.90
2023-03-19T14:01:43.762Z,56.50
2023-03-19T14:04:31.530Z,56.80
2023-03-19T14:07:16.893Z,56.90
2023-03-19T14:09:57.584Z,57.40
2023-03-19T14:12:33.234Z,58.00
2023-03-19T14:15:09.614Z,58.30
2023-03-19T14:17:38.569Z,58.20
2023-03-19T14:20:35.417Z,58.00
2023-03-19T14:23:10.719Z,58.20
2023-03-19T14:25:53.431Z,57.90
2023-03-19T14:28:43.859Z,57.80
2023-03-19T14:31:38.737Z,57.70
2023-03-19T14:34:13.564Z,57.50
2023-03-19T14:36:56.207Z,57.60
2023-03-19T14:39:41.606Z,57.90
2023-03-19T14:42:23.278Z,58.00
2023-03-19T14:45:27.766Z,58.30
2023-03-19T14:48:32.572Z,57.80
2023-03-19T14:51:15.712Z,58.30
2023-03-19T14:54:06.036Z,58.80
2023-03-19T14:56:35.577Z,59.10
2023-03-19T14:59:03.312Z,58.90
2023-03-19T15:01:32.529Z,58.90
2023-03-19T15:04:11.091Z,59.00
2023-03-19T15:06:42.782Z,59.30
2023-03-19T15:09:20.803Z,59.80
2023-03-19T15:12:03.449Z,60.00
2023-03-19T15:14:50.297Z,60.00
2023-03-19T15:17:31.745Z,60.10
2023-03-19T15:20:13.153Z,60.30
2023-03-19T15:22:40.368Z,60.30
2023-03-19T15:25:15.004Z,60.80
2023-03-19T15:27:42.761Z,61.00
2023-03-19T15:30:20.341Z,61.20
2023-03-19T15:32:56.397Z,61.00
2023-03-19T15:35:32.554Z,60.90
2023-03-19T15:38:07.947Z,61.20
2023-03-19T15:40:36.939Z,61.70
2023-03-19T15:43:09.373Z,61.80
2023-03-19T15:45:39.010Z,61.90
2023-03-19T15:48:33.686Z,62.10
2023-03-19T15:51:04.498Z,62.10
2023-03-19T15:53:34.660Z,61.80
2023-03-19T15:56:07.263Z,62.60
2023-03-19T15:58:41.652Z,62.40
2023-03-19T16:01:12.541Z,62.60
2023-03-19T16:03:42.910Z,63.60
2023-03-19T16:06:31.421Z,63.00
2023-03-19T16:09:30.822Z,63.50
2023-03-19T16:11:58.774Z,63.90
2023-03-19T16:14:43.284Z,64.30
2023-03-19T16:17:18.022Z,64.50
2023-03-19T16:19:54.533Z,64.90
2023-03-19T16:22:25.397Z,65.50
2023-03-19T16:24:52.932Z,65.80
2023-03-19T16:27:25.803Z,68.70
2023-03-19T16:30:00.381Z,69.70
2023-03-19T16:32:30.010Z,69.50
2023-03-19T16:35:06.575Z,68.90
2023-03-19T16:37:44.015Z,69.30
2023-03-19T16:40:13.853Z,69.70
2023-03-19T16:42:43.679Z,69.90
2023-03-19T16:45:31.589Z,72.30
2023-03-19T16:48:01.638Z,71.20
2023-03-19T16:50:35.056Z,71.80
2023-03-19T16:53:20.923Z,72.20
2023-03-19T16:55:48.536Z,72.60
2023-03-19T16:58:18.987Z,74.10
2023-03-19T17:00:46.939Z,74.00
2023-03-19T17:03:19.924Z,76.20
2023-03-19T17:05:49.960Z,75.90
2023-03-19T17:08:19.885Z,77.10
2023-03-19T17:10:49.369Z,77.90
2023-03-19T17:13:29.914Z,78.20
2023-03-19T17:16:03.302Z,78.50
2023-03-19T17:18:32.455Z,79.30
2023-03-19T17:21:05.012Z,79.80
2023-03-19T17:23:32.780Z,80.10
2023-03-19T17:26:02.523Z,80.50
2023-03-19T17:28:29.913Z,81.10
2023-03-19T17:30:57.177Z,80.20
2023-03-19T17:33:29.809Z,82.60
2023-03-19T17:35:59.346Z,83.00
2023-03-19T17:38:35.144Z,83.00
2023-03-19T17:41:02.724Z,82.80
2023-03-19T17:43:30.069Z,83.10
2023-03-19T17:45:57.113Z,83.40
2023-03-19T17:48:26.668Z,83.70
2023-03-19T17:50:58.419Z,84.30
2023-03-19T17:53:29.232Z,84.90
2023-03-19T17:55:58.479Z,85.60
2023-03-19T17:58:28.376Z,87.30
2023-03-19T18:00:55.452Z,86.90
2023-03-19T18:03:24.882Z,87.40
2023-03-19T18:05:51.963Z,88.00
2023-03-19T18:08:21.558Z,87.60
2023-03-19T18:10:48.606Z,87.80
2023-03-19T18:13:18.193Z,88.60
2023-03-19T18:15:46.061Z,89.60
2023-03-19T18:18:23.685Z,89.10
2023-03-19T18:20:50.813Z,89.00
2023-03-19T18:23:18.771Z,89.70
2023-03-19T18:25:46.410Z,90.00
2023-03-19T18:28:15.963Z,90.40
2023-03-19T18:30:44.782Z,90.30
2023-03-19T18:33:18.648Z,90.90
2023-03-19T18:35:46.374Z,91.10
2023-03-19T18:38:21.482Z,91.50
2023-03-19T18:40:49.620Z,91.50
2023-03-19T18:43:19.502Z,91.90
2023-03-19T18:45:51.001Z,91.90
2023-03-19T18:48:27.520Z,92.10
2023-03-19T18:50:57.706Z,92.00
2023-03-19T18:53:25.410Z,92.60
2023-03-19T18:55:52.785Z,92.20
2023-03-19T18:58:27.930Z,92.70
2023-03-19T19:00:57.900Z,92.50
2023-03-19T19:03:25.799Z,92.30
2023-03-19T19:05:52.871Z,92.50
2023-03-19T19:08:22.985Z,92.40
2023-03-19T19:10:53.844Z,92.40
2023-03-19T19:13:30.543Z,92.70
2023-03-19T19:15:59.989Z,92.40
2023-03-19T19:18:31.284Z,92.20
2023-03-19T19:20:58.917Z,92.30
2023-03-19T19:23:26.467Z,92.20
2023-03-19T19:25:53.934Z,92.20
2023-03-19T19:28:28.093Z,92.20
2023-03-19T19:30:57.465Z,92.30
2023-03-19T19:33:28.281Z,92.30
2023-03-19T19:35:55.768Z,92.50
2023-03-19T19:38:23.383Z,93.00
2023-03-19T19:40:53.895Z,93.20
2023-03-19T19:43:25.933Z,93.10
2023-03-19T19:45:55.112Z,93.10
2023-03-19T19:48:25.170Z,93.40
2023-03-19T19:50:53.072Z,93.30
2023-03-19T19:53:23.572Z,94.30
2023-03-19T19:55:50.964Z,94.30
2023-03-19T19:58:22.303Z,94.90
2023-03-19T20:01:02.732Z,94.80
2023-03-19T20:03:33.468Z,94.60
2023-03-19T20:06:02.866Z,94.90
2023-03-19T20:08:30.323Z,95.00
2023-03-19T20:11:00.130Z,94.90
2023-03-19T20:13:34.007Z,95.70
2023-03-19T20:16:01.670Z,96.80
2023-03-19T20:18:32.965Z,96.10
2023-03-19T20:21:00.157Z,96.50
2023-03-19T20:23:27.843Z,96.20
2023-03-19T20:25:55.030Z,96.60
2023-03-19T20:28:28.178Z,96.00
2023-03-19T20:30:55.543Z,95.90
2023-03-19T20:33:23.060Z,96.10
2023-03-19T20:35:50.767Z,95.70
2023-03-19T20:38:18.357Z,95.80
2023-03-19T20:40:56.702Z,96.30
2023-03-19T20:43:33.240Z,95.70
2023-03-19T20:46:05.557Z,95.80
2023-03-19T20:48:34.078Z,96.20
2023-03-19T20:51:02.185Z,95.70
2023-03-19T20:53:29.677Z,96.00
2023-03-19T20:55:57.019Z,95.80
2023-03-19T20:58:34.732Z,95.80
2023-03-19T21:01:02.412Z,95.70
2023-03-19T21:03:34.816Z,95.30
2023-03-19T21:06:04.488Z,95.30
2023-03-19T21:08:36.759Z,94.50
2023-03-19T21:11:06.478Z,94.70
2023-03-19T21:13:33.809Z,96.20
2023-03-19T21:16:01.074Z,94.40
2023-03-19T21:18:28.483Z,94.40
2023-03-19T21:20:57.834Z,94.60
2023-03-19T21:23:34.786Z,94.40
2023-03-19T21:26:17.556Z,94.50
2023-03-19T21:28:46.979Z,94.30
2023-03-19T21:31:21.277Z,94.40
2023-03-19T21:33:49.946Z,94.90
2023-03-19T21:36:19.248Z,94.40
2023-03-19T21:38:46.816Z,94.30
2023-03-19T21:41:31.472Z,94.60
2023-03-19T21:44:20.751Z,94.20
2023-03-19T21:46:48.918Z,93.70
2023-03-19T21:49:16.784Z,94.00
2023-03-19T21:51:44.016Z,94.00
2023-03-19T21:54:13.854Z,94.20
2023-03-19T21:56:44.525Z,94.20
2023-03-19T21:59:44.910Z,93.90
2023-03-19T22:02:26.786Z,93.90
2023-03-19T22:04:58.646Z,94.10
2023-03-19T22:07:25.657Z,94.60
2023-03-19T22:09:52.989Z,95.30
2023-03-19T22:12:27.469Z,95.10
2023-03-19T22:14:55.010Z,95.40
2023-03-19T22:17:25.608Z,95.20
2023-03-19T22:19:55.439Z,95.40
2023-03-19T22:22:24.917Z,95.60
2023-03-19T22:24:52.381Z,95.70
2023-03-19T22:27:19.988Z,97.00
2023-03-19T22:29:47.648Z,96.40
2023-03-19T22:32:18.854Z,96.60
2023-03-19T22:34:48.777Z,96.30
2023-03-19T22:37:27.767Z,96.00
2023-03-19T22:39:57.636Z,96.10
2023-03-19T22:42:26.069Z,96.30
2023-03-19T22:44:57.904Z,96.40
2023-03-19T22:47:37.381Z,96.60
2023-03-19T22:50:06.354Z,96.90
2023-03-19T22:52:33.391Z,97.00
2023-03-19T22:55:00.697Z,97.10
2023-03-19T22:57:27.796Z,97.20
2023-03-19T22:59:57.440Z,97.20
2023-03-19T23:02:24.524Z,97.30
2023-03-19T23:04:52.824Z,97.30
2023-03-19T23:07:24.275Z,97.50
2023-03-19T23:09:51.568Z,97.50
2023-03-19T23:12:18.664Z,97.90
2023-03-19T23:14:50.955Z,98.10
2023-03-19T23:17:20.491Z,98.50
2023-03-19T23:19:50.318Z,98.80
2023-03-19T23:22:17.572Z,99.10
2023-03-19T23:24:47.409Z,99.40
2023-03-19T23:27:24.823Z,99.70
2023-03-19T23:29:52.958Z,99.90
2023-03-19T23:32:22.240Z,99.90
2023-03-19T23:35:00.289Z,99.90
2023-03-19T23:37:28.271Z,99.90
2023-03-19T23:39:58.066Z,99.90
2023-03-19T23:42:29.701Z,99.90
2023-03-19T23:45:00.805Z,99.90
2023-03-19T23:47:31.553Z,99.90
2023-03-19T23:49:58.997Z,99.90
2023-03-19T23:52:28.579Z,99.90
2023-03-19T23:54:55.919Z,99.90
2023-03-19T23:57:27.957Z,99.90
2023-03-19T23:59:55.555Z,99.90
